createdAt,value
2018-06-11T00:04:36.138Z,96498.50
2018-06-11T00:09:30.548Z,96492.61
2018-06-11T00:14:24.976Z,96490.30
2018-06-11T00:19:19.433Z,96482.64
2018-06-11T00:24:13.838Z,96485.39
2018-06-11T00:29:08.070Z,96488.61
2018-06-11T00:34:02.718Z,96488.77
2018-06-11T00:38:57.164Z,96479.55
2018-06-11T00:43:51.600Z,96470.02
2018-06-11T00:48:46.084Z,96458.02
2018-06-11T00:53:40.508Z,96463.10
2018-06-11T00:58:35.023Z,96454.27
2018-06-11T01:03:29.461Z,96458.58
2018-06-11T01:08:23.621Z,96451.30
2018-06-11T01:13:18.060Z,96451.64
2018-06-11T01:18:12.464Z,96446.76
2018-06-11T01:23:06.967Z,96449.17
2018-06-11T01:28:01.416Z,96461.41
2018-06-11T01:32:55.900Z,96460.34
2018-06-11T01:37:50.413Z,96460.70
2018-06-11T01:42:44.875Z,96447.16
2018-06-11T01:47:39.288Z,96431.80
2018-06-11T01:52:33.693Z,96433.99
2018-06-11T01:57:29.115Z,96430.86
2018-06-11T02:02:23.538Z,96435.77
2018-06-11T02:07:18.020Z,96434.30
2018-06-11T02:12:12.479Z,96419.72
2018-06-11T02:17:06.984Z,96413.31
2018-06-11T02:22:01.508Z,96415.67
2018-06-11T02:26:55.931Z,96416.16
2018-06-11T02:31:50.389Z,96418.04
2018-06-11T02:36:44.845Z,96423.44
2018-06-11T02:41:39.337Z,96429.42
2018-06-11T02:46:33.762Z,96419.74
2018-06-11T02:51:28.194Z,96416.90
2018-06-11T02:56:22.718Z,96405.66
2018-06-11T03:01:17.153Z,96399.69
2018-06-11T03:06:11.577Z,96400.42
2018-06-11T03:11:06.069Z,96399.17
2018-06-11T03:16:00.502Z,96412.23
2018-06-11T03:20:54.920Z,96414.02
2018-06-11T03:25:49.373Z,96424.44
2018-06-11T03:30:43.761Z,96415.20
2018-06-11T03:35:38.216Z,96423.25
2018-06-11T03:40:32.645Z,96404.78
2018-06-11T03:45:27.102Z,96402.36
2018-06-11T03:50:21.528Z,96402.84
2018-06-11T03:55:15.995Z,96393.47
2018-06-11T04:00:12.204Z,96379.62
2018-06-11T04:05:06.847Z,96376.84
2018-06-11T04:10:01.329Z,96369.66
2018-06-11T04:14:55.754Z,96374.50
2018-06-11T04:19:50.229Z,96373.41
2018-06-11T04:24:44.732Z,96369.59
2018-06-11T04:29:39.120Z,96365.83
2018-06-11T04:34:33.569Z,96360.93
2018-06-11T04:39:28.012Z,96354.61
2018-06-11T04:44:22.493Z,96360.13
2018-06-11T04:49:16.960Z,96343.64
2018-06-11T04:54:11.436Z,96340.33
2018-06-11T04:59:05.885Z,96336.07
2018-06-11T05:04:00.328Z,96338.11
2018-06-11T05:08:54.765Z,96351.61
2018-06-11T05:13:49.190Z,96358.86
2018-06-11T05:18:43.611Z,96351.48
2018-06-11T05:23:38.068Z,96366.23
2018-06-11T05:28:32.484Z,96359.28
2018-06-11T05:33:26.930Z,96365.47
2018-06-11T05:38:21.443Z,96357.09
2018-06-11T05:43:15.909Z,96365.13
2018-06-11T05:48:10.291Z,96356.13
2018-06-11T05:53:04.804Z,96355.80
2018-06-11T05:57:59.337Z,96353.88
2018-06-11T06:02:53.738Z,96349.50
2018-06-11T06:07:48.139Z,96347.86
2018-06-11T06:12:42.564Z,96360.11
2018-06-11T06:17:49.448Z,96361.52
2018-06-11T06:22:44.169Z,96367.75
2018-06-11T06:27:38.607Z,96375.61
2018-06-11T06:32:33.668Z,96373.94
2018-06-11T06:37:28.643Z,96377.52
2018-06-11T06:42:23.106Z,96372.26
2018-06-11T06:47:18.885Z,96371.70
2018-06-11T06:52:13.303Z,96364.99
2018-06-11T06:57:07.743Z,96367.05
2018-06-11T07:02:02.321Z,96367.95
2018-06-11T07:06:57.092Z,96371.22
2018-06-11T07:12:06.092Z,96367.95
2018-06-11T07:17:00.906Z,96367.07
2018-06-11T07:21:55.129Z,96359.37
2018-06-11T07:26:50.272Z,96360.77
2018-06-11T07:31:48.092Z,96355.05
2018-06-11T07:42:01.222Z,96337.20
2018-06-11T07:46:56.293Z,96332.45
2018-06-11T07:51:52.531Z,96339.60
2018-06-11T07:56:49.604Z,96343.19
2018-06-11T08:01:44.690Z,96343.71
2018-06-11T08:06:39.124Z,96332.41
2018-06-11T08:11:33.550Z,96338.72
2018-06-11T08:16:27.708Z,96337.20
2018-06-11T08:21:22.124Z,96336.11
2018-06-11T08:26:16.586Z,96333.72
2018-06-11T08:31:18.959Z,96326.27
2018-06-11T08:36:14.580Z,96324.41
2018-06-11T08:41:09.896Z,96315.14
2018-06-11T08:46:05.027Z,96312.55
2018-06-11T08:50:59.651Z,96313.41
2018-06-11T08:55:54.310Z,96301.94
2018-06-11T09:00:48.755Z,96299.88
2018-06-11T09:05:44.140Z,96299.08
2018-06-11T09:10:43.511Z,96302.08
2018-06-11T09:15:38.761Z,96300.52
2018-06-11T09:20:33.842Z,96308.42
2018-06-11T09:25:32.229Z,96307.20
2018-06-11T09:30:27.052Z,96314.95
2018-06-11T09:35:21.655Z,96316.27
2018-06-11T09:40:16.134Z,96317.86
2018-06-11T09:45:10.767Z,96323.20
2018-06-11T09:50:05.676Z,96321.66
2018-06-11T09:55:00.115Z,96313.07
2018-06-11T09:59:57.219Z,96304.64
2018-06-11T10:04:51.939Z,96300.98
2018-06-11T10:09:46.386Z,96301.53
2018-06-11T10:14:41.133Z,96297.34
2018-06-11T10:19:35.586Z,96295.42
2018-06-11T10:24:30.060Z,96296.34
2018-06-11T10:29:24.473Z,96288.59
2018-06-11T10:34:19.902Z,96281.17
2018-06-11T10:39:14.628Z,96279.83
2018-06-11T10:44:09.122Z,96275.07
2018-06-11T10:49:06.448Z,96293.41
2018-06-11T10:54:01.542Z,96296.27
2018-06-11T10:58:56.004Z,96285.69
2018-06-11T11:03:50.752Z,96286.95
2018-06-11T11:08:47.712Z,96285.42
2018-06-11T11:13:42.285Z,96276.11
2018-06-11T11:18:57.652Z,96272.73
2018-06-11T11:23:52.449Z,96251.19
2018-06-11T11:28:46.879Z,96252.72
2018-06-11T11:33:41.517Z,96239.09
2018-06-11T11:38:42.829Z,96246.69
2018-06-11T11:43:37.351Z,96246.82
2018-06-11T11:48:31.873Z,96236.03
2018-06-11T11:53:26.821Z,96223.55
2018-06-11T11:58:21.488Z,96219.30
2018-06-11T12:03:15.930Z,96212.26
2018-06-11T12:08:10.397Z,96220.69
2018-06-11T12:13:05.097Z,96191.22
2018-06-11T12:17:59.577Z,96213.86
2018-06-11T12:22:53.756Z,96221.02
2018-06-11T12:27:48.497Z,96230.39
2018-06-11T12:32:42.958Z,96231.53
2018-06-11T12:37:38.483Z,96213.76
2018-06-11T12:42:34.881Z,96169.83
2018-06-11T12:47:29.425Z,96164.94
2018-06-11T12:52:23.989Z,96172.27
2018-06-11T12:57:18.147Z,96163.80
2018-06-11T13:02:16.390Z,96163.77
2018-06-11T13:07:12.715Z,96169.34
2018-06-11T13:12:07.322Z,96168.14
2018-06-11T13:17:04.136Z,96161.81
2018-06-11T13:21:59.133Z,96159.66
2018-06-11T13:26:53.935Z,96174.48
2018-06-11T13:31:48.633Z,96174.72
2018-06-11T13:36:43.704Z,96179.60
2018-06-11T13:41:38.442Z,96189.73
2018-06-11T13:46:33.423Z,96190.75
2018-06-11T13:51:27.891Z,96184.84
2018-06-11T13:56:22.420Z,96191.30
2018-06-11T14:01:17.262Z,96190.53
2018-06-11T14:06:11.743Z,96187.96
2018-06-11T14:11:06.338Z,96171.59
2018-06-11T14:16:03.336Z,96152.13
2018-06-11T14:20:57.998Z,96153.80
2018-06-11T14:25:52.463Z,96177.95
2018-06-11T14:30:47.044Z,96222.14
2018-06-11T14:35:41.749Z,96237.77
2018-06-11T14:40:36.570Z,96169.36
2018-06-11T14:45:31.591Z,96174.44
2018-06-11T14:50:26.165Z,96182.49
2018-06-11T14:55:21.199Z,96180.16
2018-06-11T15:00:19.629Z,96168.13
2018-06-11T15:05:14.697Z,96164.80
2018-06-11T15:10:09.497Z,96158.38
2018-06-11T15:15:04.317Z,96154.45
2018-06-11T15:19:59.225Z,96155.10
2018-06-11T15:24:54.150Z,96173.38
2018-06-11T15:29:50.165Z,96187.48
2018-06-11T15:34:46.805Z,96188.66
2018-06-11T15:39:41.668Z,96193.06
2018-06-11T15:44:36.264Z,96198.55
2018-06-11T15:49:30.974Z,96188.94
2018-06-11T15:54:25.657Z,96197.62
2018-06-11T15:59:20.624Z,96201.56
2018-06-11T16:04:15.223Z,96203.91
2018-06-11T16:09:09.947Z,96218.11
2018-06-11T16:14:04.590Z,96207.78
2018-06-11T16:18:59.114Z,96199.72
2018-06-11T16:23:53.958Z,96172.40
2018-06-11T16:28:48.687Z,96175.89
2018-06-11T16:33:43.445Z,96192.47
2018-06-11T16:38:38.712Z,96195.48
2018-06-11T16:45:02.651Z,96210.52
2018-06-11T16:49:57.363Z,96222.35
2018-06-11T16:54:51.988Z,96227.14
2018-06-11T16:59:47.998Z,96233.86
2018-06-11T17:04:43.460Z,96245.06
2018-06-11T17:09:38.089Z,96233.30
2018-06-11T17:14:32.794Z,96225.63
2018-06-11T17:19:29.110Z,96227.36
2018-06-11T17:24:25.657Z,96225.88
2018-06-11T17:29:20.277Z,96226.82
2018-06-11T17:34:14.879Z,96220.51
2018-06-11T17:39:09.463Z,96218.19
2018-06-11T17:44:03.988Z,96208.88
2018-06-11T17:48:58.535Z,96217.73
2018-06-11T17:53:53.069Z,96215.06
2018-06-11T17:58:48.667Z,96215.72
2018-06-11T18:03:43.156Z,96219.02
2018-06-11T18:08:37.665Z,96223.69
2018-06-11T18:13:32.290Z,96222.88
2018-06-11T18:18:26.825Z,96219.27
2018-06-11T18:23:21.350Z,96219.73
2018-06-11T18:28:15.853Z,96212.77
2018-06-11T18:33:10.505Z,96218.77
2018-06-11T18:38:05.021Z,96223.13
2018-06-11T18:42:59.650Z,96224.55
2018-06-11T18:47:54.134Z,96216.09
2018-06-11T18:52:49.537Z,96211.11
2018-06-11T18:57:44.058Z,96223.59
2018-06-11T19:02:39.516Z,96232.95
2018-06-11T19:07:33.682Z,96241.73
2018-06-11T19:12:28.190Z,96249.08
2018-06-11T19:17:22.884Z,96250.50
2018-06-11T19:22:17.364Z,96262.62
2018-06-11T19:27:11.904Z,96278.11
2018-06-11T19:32:06.555Z,96283.58
2018-06-11T19:37:01.091Z,96286.54
2018-06-11T19:41:55.577Z,96298.30
2018-06-11T19:46:50.103Z,96316.20
2018-06-11T19:51:44.735Z,96304.41
2018-06-11T19:56:39.400Z,96303.48
2018-06-11T20:01:33.862Z,96307.53
2018-06-11T20:06:28.322Z,96324.80
2018-06-11T20:11:22.833Z,96320.04
2018-06-11T20:16:18.436Z,96321.72
2018-06-11T20:21:12.938Z,96320.64
2018-06-11T20:26:07.486Z,96333.10
2018-06-11T20:31:02.010Z,96332.95
2018-06-11T20:35:56.541Z,96324.09
2018-06-11T20:40:51.003Z,96309.18
2018-06-11T20:47:14.956Z,96322.70
2018-06-11T20:52:09.567Z,96333.46
2018-06-11T20:57:04.185Z,96335.45
2018-06-11T21:01:58.386Z,96333.61
2018-06-11T21:06:52.797Z,96326.45
2018-06-11T21:11:47.265Z,96329.87
2018-06-11T21:16:41.704Z,96321.63
2018-06-11T21:21:35.966Z,96311.22
2018-06-11T21:26:30.465Z,96318.50
2018-06-11T21:31:25.012Z,96309.98
2018-06-11T21:36:19.476Z,96305.23
2018-06-11T21:41:14.097Z,96295.29
2018-06-11T21:46:08.578Z,96287.83
2018-06-11T21:51:03.544Z,96284.50
2018-06-11T21:55:58.040Z,96288.02
2018-06-11T22:00:52.501Z,96291.86
2018-06-11T22:05:47.005Z,96302.94
2018-06-11T22:10:41.430Z,96310.25
2018-06-11T22:15:35.929Z,96302.98
2018-06-11T22:20:30.443Z,96291.87
2018-06-11T22:25:24.908Z,96293.56
2018-06-11T22:30:19.440Z,96311.16
2018-06-11T22:35:13.932Z,96303.05
2018-06-11T22:40:08.388Z,96292.52
2018-06-11T22:45:03.000Z,96294.78
2018-06-11T22:49:57.568Z,96294.14
2018-06-11T22:54:52.048Z,96293.58
2018-06-11T22:59:46.518Z,96283.10
2018-06-11T23:06:09.995Z,96283.67
2018-06-11T23:11:04.604Z,96276.16
2018-06-11T23:15:59.382Z,96278.41
2018-06-11T23:20:53.901Z,96286.49
2018-06-11T23:25:48.328Z,96285.53
2018-06-11T23:30:42.753Z,96282.77
2018-06-11T23:35:37.202Z,96281.03
2018-06-11T23:40:31.610Z,96274.50
2018-06-11T23:45:26.987Z,96284.38
2018-06-11T23:50:21.277Z,96280.33
2018-06-11T23:55:15.785Z,96274.13
